sensor_id;sensor_type;location;lat;lon;timestamp;P1;durP1;ratioP1;P2;durP2;ratioP2
10201;SDS011;5143;42.584;23.164;2023-05-23T00:00:37;7.70;;;3.10;;
10201;SDS011;5143;42.584;23.164;2023-05-23T00:03:04;5.40;;;3.33;;
10201;SDS011;5143;42.584;23.164;2023-05-23T00:05:32;8.83;;;3.23;;
10201;SDS011;5143;42.584;23.164;2023-05-23T00:07:59;6.27;;;3.17;;
10201;SDS011;5143;42.584;23.164;2023-05-23T00:10:26;6.80;;;3.83;;
10201;SDS011;5143;42.584;23.164;2023-05-23T00:12:53;6.50;;;4.13;;
10201;SDS011;5143;42.584;23.164;2023-05-23T00:15:19;5.20;;;3.37;;
10201;SDS011;5143;42.584;23.164;2023-05-23T00:17:46;4.03;;;3.13;;
10201;SDS011;5143;42.584;23.164;2023-05-23T00:20:13;6.93;;;3.43;;
10201;SDS011;5143;42.584;23.164;2023-05-23T00:22:42;7.00;;;3.43;;
10201;SDS011;5143;42.584;23.164;2023-05-23T00:25:12;4.90;;;3.33;;
10201;SDS011;5143;42.584;23.164;2023-05-23T00:27:39;3.87;;;3.03;;
10201;SDS011;5143;42.584;23.164;2023-05-23T00:30:06;7.40;;;3.43;;
10201;SDS011;5143;42.584;23.164;2023-05-23T00:32:33;6.23;;;3.40;;
10201;SDS011;5143;42.584;23.164;2023-05-23T00:35:00;9.30;;;3.60;;
10201;SDS011;5143;42.584;23.164;2023-05-23T00:37:28;8.93;;;3.63;;
10201;SDS011;5143;42.584;23.164;2023-05-23T00:39:56;6.20;;;3.23;;
10201;SDS011;5143;42.584;23.164;2023-05-23T00:42:22;4.93;;;3.00;;
10201;SDS011;5143;42.584;23.164;2023-05-23T00:44:49;8.60;;;3.50;;
10201;SDS011;5143;42.584;23.164;2023-05-23T00:47:16;8.30;;;3.20;;
10201;SDS011;5143;42.584;23.164;2023-05-23T00:49:43;8.00;;;3.30;;
10201;SDS011;5143;42.584;23.164;2023-05-23T00:52:10;4.93;;;3.10;;
10201;SDS011;5143;42.584;23.164;2023-05-23T00:54:37;9.43;;;3.57;;
10201;SDS011;5143;42.584;23.164;2023-05-23T00:57:06;4.80;;;3.37;;
10201;SDS011;5143;42.584;23.164;2023-05-23T00:59:33;4.53;;;3.37;;
10201;SDS011;5143;42.584;23.164;2023-05-23T01:02:01;4.20;;;3.40;;
10201;SDS011;5143;42.584;23.164;2023-05-23T01:04:28;6.57;;;3.53;;
10201;SDS011;5143;42.584;23.164;2023-05-23T01:06:58;7.03;;;3.57;;
10201;SDS011;5143;42.584;23.164;2023-05-23T01:09:26;7.80;;;3.87;;
10201;SDS011;5143;42.584;23.164;2023-05-23T01:11:57;8.93;;;4.10;;
10201;SDS011;5143;42.584;23.164;2023-05-23T01:14:37;4.43;;;3.60;;
10201;SDS011;5143;42.584;23.164;2023-05-23T01:17:11;5.67;;;3.70;;
10201;SDS011;5143;42.584;23.164;2023-05-23T01:19:50;8.63;;;4.67;;
10201;SDS011;5143;42.584;23.164;2023-05-23T01:22:31;4.83;;;3.40;;
10201;SDS011;5143;42.584;23.164;2023-05-23T01:25:09;6.57;;;3.80;;
10201;SDS011;5143;42.584;23.164;2023-05-23T01:27:50;7.53;;;3.80;;
10201;SDS011;5143;42.584;23.164;2023-05-23T01:30:20;5.93;;;3.50;;
10201;SDS011;5143;42.584;23.164;2023-05-23T01:32:49;8.27;;;3.60;;
10201;SDS011;5143;42.584;23.164;2023-05-23T01:35:21;6.57;;;4.13;;
10201;SDS011;5143;42.584;23.164;2023-05-23T01:37:51;7.40;;;3.90;;
10201;SDS011;5143;42.584;23.164;2023-05-23T01:40:18;10.13;;;3.83;;
10201;SDS011;5143;42.584;23.164;2023-05-23T01:42:45;11.90;;;4.30;;
10201;SDS011;5143;42.584;23.164;2023-05-23T01:45:13;6.23;;;3.63;;
10201;SDS011;5143;42.584;23.164;2023-05-23T01:47:41;10.03;;;4.03;;
10201;SDS011;5143;42.584;23.164;2023-05-23T01:50:09;6.27;;;4.10;;
10201;SDS011;5143;42.584;23.164;2023-05-23T01:52:37;7.63;;;4.50;;
10201;SDS011;5143;42.584;23.164;2023-05-23T01:55:05;8.27;;;3.90;;
10201;SDS011;5143;42.584;23.164;2023-05-23T01:57:34;7.00;;;3.80;;
10201;SDS011;5143;42.584;23.164;2023-05-23T02:00:02;4.03;;;3.40;;
10201;SDS011;5143;42.584;23.164;2023-05-23T02:02:32;7.93;;;3.53;;
10201;SDS011;5143;42.584;23.164;2023-05-23T02:05:00;6.47;;;3.57;;
10201;SDS011;5143;42.584;23.164;2023-05-23T02:07:27;5.37;;;3.87;;
10201;SDS011;5143;42.584;23.164;2023-05-23T02:09:53;7.03;;;4.30;;
10201;SDS011;5143;42.584;23.164;2023-05-23T02:12:20;5.70;;;3.63;;
10201;SDS011;5143;42.584;23.164;2023-05-23T02:14:48;6.70;;;3.70;;
10201;SDS011;5143;42.584;23.164;2023-05-23T02:17:16;4.87;;;3.80;;
10201;SDS011;5143;42.584;23.164;2023-05-23T02:19:44;10.33;;;3.73;;
10201;SDS011;5143;42.584;23.164;2023-05-23T02:22:11;4.80;;;3.80;;
10201;SDS011;5143;42.584;23.164;2023-05-23T02:24:38;6.97;;;4.07;;
10201;SDS011;5143;42.584;23.164;2023-05-23T02:27:04;7.80;;;4.50;;
10201;SDS011;5143;42.584;23.164;2023-05-23T02:29:31;6.17;;;3.83;;
10201;SDS011;5143;42.584;23.164;2023-05-23T02:31:58;4.50;;;3.70;;
10201;SDS011;5143;42.584;23.164;2023-05-23T02:34:25;4.90;;;3.97;;
10201;SDS011;5143;42.584;23.164;2023-05-23T02:36:53;7.30;;;3.90;;
10201;SDS011;5143;42.584;23.164;2023-05-23T02:39:20;8.50;;;4.00;;
10201;SDS011;5143;42.584;23.164;2023-05-23T02:41:46;10.53;;;4.40;;
10201;SDS011;5143;42.584;23.164;2023-05-23T02:44:13;7.00;;;4.20;;
10201;SDS011;5143;42.584;23.164;2023-05-23T02:46:43;12.57;;;4.03;;
10201;SDS011;5143;42.584;23.164;2023-05-23T02:49:10;6.00;;;4.10;;
10201;SDS011;5143;42.584;23.164;2023-05-23T02:51:37;6.10;;;4.13;;
10201;SDS011;5143;42.584;23.164;2023-05-23T02:54:05;5.53;;;3.87;;
10201;SDS011;5143;42.584;23.164;2023-05-23T02:56:32;10.30;;;4.13;;
10201;SDS011;5143;42.584;23.164;2023-05-23T02:58:58;10.10;;;4.20;;
10201;SDS011;5143;42.584;23.164;2023-05-23T03:01:25;9.77;;;4.27;;
10201;SDS011;5143;42.584;23.164;2023-05-23T03:03:52;10.53;;;4.37;;
10201;SDS011;5143;42.584;23.164;2023-05-23T03:06:18;9.13;;;4.30;;
10201;SDS011;5143;42.584;23.164;2023-05-23T03:08:46;8.20;;;4.60;;
10201;SDS011;5143;42.584;23.164;2023-05-23T03:11:15;6.17;;;3.77;;
10201;SDS011;5143;42.584;23.164;2023-05-23T03:13:41;7.03;;;3.73;;
10201;SDS011;5143;42.584;23.164;2023-05-23T03:16:08;6.90;;;3.80;;
10201;SDS011;5143;42.584;23.164;2023-05-23T03:18:36;6.57;;;4.60;;
10201;SDS011;5143;42.584;23.164;2023-05-23T03:21:06;16.30;;;4.73;;
10201;SDS011;5143;42.584;23.164;2023-05-23T03:23:33;8.40;;;4.60;;
10201;SDS011;5143;42.584;23.164;2023-05-23T03:26:00;8.63;;;4.27;;
10201;SDS011;5143;42.584;23.164;2023-05-23T03:28:29;5.37;;;4.03;;
10201;SDS011;5143;42.584;23.164;2023-05-23T03:30:56;7.10;;;4.13;;
10201;SDS011;5143;42.584;23.164;2023-05-23T03:33:23;8.13;;;3.90;;
10201;SDS011;5143;42.584;23.164;2023-05-23T03:35:49;14.70;;;4.97;;
10201;SDS011;5143;42.584;23.164;2023-05-23T03:38:17;7.60;;;4.80;;
10201;SDS011;5143;42.584;23.164;2023-05-23T03:40:43;12.83;;;7.77;;
10201;SDS011;5143;42.584;23.164;2023-05-23T03:43:11;15.47;;;6.40;;
10201;SDS011;5143;42.584;23.164;2023-05-23T03:45:39;10.73;;;5.97;;
10201;SDS011;5143;42.584;23.164;2023-05-23T03:48:06;9.97;;;6.90;;
10201;SDS011;5143;42.584;23.164;2023-05-23T03:50:32;12.33;;;7.33;;
10201;SDS011;5143;42.584;23.164;2023-05-23T03:52:59;16.07;;;8.63;;
10201;SDS011;5143;42.584;23.164;2023-05-23T03:55:26;16.77;;;7.00;;
10201;SDS011;5143;42.584;23.164;2023-05-23T03:57:56;10.60;;;6.60;;
10201;SDS011;5143;42.584;23.164;2023-05-23T04:00:22;10.53;;;6.33;;
10201;SDS011;5143;42.584;23.164;2023-05-23T04:02:51;13.03;;;6.37;;
10201;SDS011;5143;42.584;23.164;2023-05-23T04:05:18;9.30;;;6.83;;
10201;SDS011;5143;42.584;23.164;2023-05-23T04:07:45;18.03;;;9.80;;
10201;SDS011;5143;42.584;23.164;2023-05-23T04:10:12;29.23;;;14.83;;
10201;SDS011;5143;42.584;23.164;2023-05-23T04:12:39;16.20;;;9.70;;
10201;SDS011;5143;42.584;23.164;2023-05-23T04:15:07;17.07;;;8.63;;
10201;SDS011;5143;42.584;23.164;2023-05-23T04:17:35;16.83;;;10.73;;
10201;SDS011;5143;42.584;23.164;2023-05-23T04:20:05;22.80;;;10.90;;
10201;SDS011;5143;42.584;23.164;2023-05-23T04:22:33;19.17;;;13.07;;
10201;SDS011;5143;42.584;23.164;2023-05-23T04:25:00;27.83;;;15.97;;
10201;SDS011;5143;42.584;23.164;2023-05-23T04:27:27;30.03;;;15.97;;
10201;SDS011;5143;42.584;23.164;2023-05-23T04:29:53;15.83;;;10.53;;
10201;SDS011;5143;42.584;23.164;2023-05-23T04:32:22;10.43;;;6.53;;
10201;SDS011;5143;42.584;23.164;2023-05-23T04:34:49;12.43;;;6.03;;
10201;SDS011;5143;42.584;23.164;2023-05-23T04:37:17;7.83;;;4.43;;
10201;SDS011;5143;42.584;23.164;2023-05-23T04:39:46;10.23;;;4.27;;
10201;SDS011;5143;42.584;23.164;2023-05-23T04:42:13;8.07;;;4.63;;
10201;SDS011;5143;42.584;23.164;2023-05-23T04:44:39;13.20;;;5.70;;
10201;SDS011;5143;42.584;23.164;2023-05-23T04:47:07;8.33;;;3.10;;
10201;SDS011;5143;42.584;23.164;2023-05-23T04:49:34;11.97;;;5.70;;
10201;SDS011;5143;42.584;23.164;2023-05-23T04:52:01;18.70;;;6.07;;
10201;SDS011;5143;42.584;23.164;2023-05-23T04:54:29;8.55;;;3.65;;
10201;SDS011;5143;42.584;23.164;2023-05-23T04:56:57;4.10;;;2.75;;
10201;SDS011;5143;42.584;23.164;2023-05-23T04:59:24;6.78;;;2.83;;
10201;SDS011;5143;42.584;23.164;2023-05-23T05:01:50;6.28;;;2.72;;
10201;SDS011;5143;42.584;23.164;2023-05-23T05:04:17;4.70;;;2.97;;
10201;SDS011;5143;42.584;23.164;2023-05-23T05:06:44;4.78;;;2.83;;
10201;SDS011;5143;42.584;23.164;2023-05-23T05:09:12;8.18;;;3.22;;
10201;SDS011;5143;42.584;23.164;2023-05-23T05:11:40;5.15;;;2.92;;
10201;SDS011;5143;42.584;23.164;2023-05-23T05:14:07;8.57;;;2.90;;
10201;SDS011;5143;42.584;23.164;2023-05-23T05:16:34;4.18;;;2.35;;
10201;SDS011;5143;42.584;23.164;2023-05-23T05:19:01;5.07;;;2.35;;
10201;SDS011;5143;42.584;23.164;2023-05-23T05:21:28;2.67;;;1.70;;
10201;SDS011;5143;42.584;23.164;2023-05-23T05:23:55;4.32;;;1.80;;
10201;SDS011;5143;42.584;23.164;2023-05-23T05:26:23;4.95;;;2.28;;
10201;SDS011;5143;42.584;23.164;2023-05-23T05:28:52;5.32;;;2.00;;
10201;SDS011;5143;42.584;23.164;2023-05-23T05:31:19;6.10;;;2.70;;
10201;SDS011;5143;42.584;23.164;2023-05-23T05:33:46;8.85;;;2.67;;
10201;SDS011;5143;42.584;23.164;2023-05-23T05:36:13;8.80;;;2.85;;
10201;SDS011;5143;42.584;23.164;2023-05-23T05:38:40;3.47;;;2.03;;
10201;SDS011;5143;42.584;23.164;2023-05-23T05:41:07;3.13;;;2.00;;
10201;SDS011;5143;42.584;23.164;2023-05-23T05:43:34;5.72;;;2.38;;
10201;SDS011;5143;42.584;23.164;2023-05-23T05:46:02;4.50;;;2.47;;
10201;SDS011;5143;42.584;23.164;2023-05-23T05:48:29;7.45;;;2.75;;
10201;SDS011;5143;42.584;23.164;2023-05-23T05:50:55;2.72;;;2.20;;
10201;SDS011;5143;42.584;23.164;2023-05-23T05:53:25;5.72;;;2.63;;
10201;SDS011;5143;42.584;23.164;2023-05-23T05:55:52;5.10;;;2.75;;
10201;SDS011;5143;42.584;23.164;2023-05-23T05:58:19;4.97;;;2.38;;
10201;SDS011;5143;42.584;23.164;2023-05-23T06:00:46;4.80;;;2.47;;
10201;SDS011;5143;42.584;23.164;2023-05-23T06:03:14;6.45;;;2.80;;
10201;SDS011;5143;42.584;23.164;2023-05-23T06:05:42;6.43;;;2.92;;
10201;SDS011;5143;42.584;23.164;2023-05-23T06:08:08;5.47;;;2.60;;
10201;SDS011;5143;42.584;23.164;2023-05-23T06:10:36;5.90;;;2.50;;
10201;SDS011;5143;42.584;23.164;2023-05-23T06:13:03;5.35;;;2.95;;
10201;SDS011;5143;42.584;23.164;2023-05-23T06:15:29;8.90;;;3.00;;
10201;SDS011;5143;42.584;23.164;2023-05-23T06:17:57;5.70;;;2.97;;
10201;SDS011;5143;42.584;23.164;2023-05-23T06:20:25;7.25;;;2.88;;
10201;SDS011;5143;42.584;23.164;2023-05-23T06:22:52;11.20;;;3.20;;
10201;SDS011;5143;42.584;23.164;2023-05-23T06:25:19;6.80;;;2.80;;
10201;SDS011;5143;42.584;23.164;2023-05-23T06:27:46;7.78;;;3.60;;
10201;SDS011;5143;42.584;23.164;2023-05-23T06:30:13;9.85;;;3.42;;
10201;SDS011;5143;42.584;23.164;2023-05-23T06:32:40;15.43;;;4.50;;
10201;SDS011;5143;42.584;23.164;2023-05-23T06:35:07;10.65;;;4.50;;
10201;SDS011;5143;42.584;23.164;2023-05-23T06:37:35;15.57;;;4.88;;
10201;SDS011;5143;42.584;23.164;2023-05-23T06:40:04;12.10;;;4.40;;
10201;SDS011;5143;42.584;23.164;2023-05-23T06:42:31;14.23;;;4.05;;
10201;SDS011;5143;42.584;23.164;2023-05-23T06:44:58;10.35;;;3.67;;
10201;SDS011;5143;42.584;23.164;2023-05-23T06:47:24;10.52;;;3.88;;
10201;SDS011;5143;42.584;23.164;2023-05-23T06:49:51;11.07;;;3.85;;
10201;SDS011;5143;42.584;23.164;2023-05-23T06:52:18;7.30;;;3.15;;
10201;SDS011;5143;42.584;23.164;2023-05-23T06:54:46;5.43;;;3.00;;
10201;SDS011;5143;42.584;23.164;2023-05-23T06:57:13;15.32;;;4.10;;
10201;SDS011;5143;42.584;23.164;2023-05-23T06:59:40;11.88;;;3.55;;
10201;SDS011;5143;42.584;23.164;2023-05-23T07:02:06;10.55;;;2.75;;
10201;SDS011;5143;42.584;23.164;2023-05-23T07:04:33;3.92;;;2.33;;
10201;SDS011;5143;42.584;23.164;2023-05-23T07:07:00;12.10;;;2.50;;
10201;SDS011;5143;42.584;23.164;2023-05-23T07:09:27;5.57;;;2.55;;
10201;SDS011;5143;42.584;23.164;2023-05-23T07:11:55;4.30;;;1.98;;
10201;SDS011;5143;42.584;23.164;2023-05-23T07:14:22;3.78;;;2.40;;
10201;SDS011;5143;42.584;23.164;2023-05-23T07:16:49;3.55;;;2.38;;
10201;SDS011;5143;42.584;23.164;2023-05-23T07:19:15;3.90;;;2.65;;
10201;SDS011;5143;42.584;23.164;2023-05-23T07:21:42;3.30;;;2.10;;
10201;SDS011;5143;42.584;23.164;2023-05-23T07:24:09;3.83;;;2.30;;
10201;SDS011;5143;42.584;23.164;2023-05-23T07:26:35;10.55;;;3.00;;
10201;SDS011;5143;42.584;23.164;2023-05-23T07:29:03;5.78;;;2.22;;
10201;SDS011;5143;42.584;23.164;2023-05-23T07:31:31;3.22;;;2.47;;
10201;SDS011;5143;42.584;23.164;2023-05-23T07:33:57;3.55;;;2.50;;
10201;SDS011;5143;42.584;23.164;2023-05-23T07:36:24;3.95;;;2.40;;
10201;SDS011;5143;42.584;23.164;2023-05-23T07:38:51;9.60;;;3.25;;
10201;SDS011;5143;42.584;23.164;2023-05-23T07:41:18;4.93;;;2.35;;
10201;SDS011;5143;42.584;23.164;2023-05-23T07:43:46;4.88;;;2.85;;
10201;SDS011;5143;42.584;23.164;2023-05-23T07:46:14;3.88;;;2.72;;
10201;SDS011;5143;42.584;23.164;2023-05-23T07:48:41;6.47;;;2.80;;
10201;SDS011;5143;42.584;23.164;2023-05-23T07:51:08;5.95;;;2.67;;
10201;SDS011;5143;42.584;23.164;2023-05-23T07:53:35;6.70;;;3.08;;
10201;SDS011;5143;42.584;23.164;2023-05-23T07:56:04;4.63;;;2.58;;
10201;SDS011;5143;42.584;23.164;2023-05-23T07:58:31;6.75;;;2.80;;
10201;SDS011;5143;42.584;23.164;2023-05-23T08:00:57;5.47;;;2.65;;
10201;SDS011;5143;42.584;23.164;2023-05-23T08:03:25;11.07;;;2.92;;
10201;SDS011;5143;42.584;23.164;2023-05-23T08:05:52;4.72;;;2.70;;
10201;SDS011;5143;42.584;23.164;2023-05-23T08:08:19;6.82;;;2.72;;
10201;SDS011;5143;42.584;23.164;2023-05-23T08:10:46;10.43;;;3.20;;
10201;SDS011;5143;42.584;23.164;2023-05-23T08:13:12;7.10;;;3.47;;
10201;SDS011;5143;42.584;23.164;2023-05-23T08:15:40;4.93;;;2.80;;
10201;SDS011;5143;42.584;23.164;2023-05-23T08:18:07;6.30;;;3.30;;
10201;SDS011;5143;42.584;23.164;2023-05-23T08:20:35;6.70;;;2.93;;
10201;SDS011;5143;42.584;23.164;2023-05-23T08:23:01;4.43;;;2.67;;
10201;SDS011;5143;42.584;23.164;2023-05-23T08:25:28;4.80;;;2.83;;
10201;SDS011;5143;42.584;23.164;2023-05-23T08:27:56;9.30;;;3.27;;
10201;SDS011;5143;42.584;23.164;2023-05-23T08:30:23;12.13;;;3.30;;
10201;SDS011;5143;42.584;23.164;2023-05-23T08:32:50;6.70;;;3.10;;
10201;SDS011;5143;42.584;23.164;2023-05-23T08:35:18;9.43;;;3.40;;
10201;SDS011;5143;42.584;23.164;2023-05-23T08:37:46;6.17;;;3.20;;
10201;SDS011;5143;42.584;23.164;2023-05-23T08:40:17;7.37;;;3.40;;
10201;SDS011;5143;42.584;23.164;2023-05-23T08:42:45;5.47;;;3.33;;
10201;SDS011;5143;42.584;23.164;2023-05-23T08:45:12;7.93;;;3.53;;
10201;SDS011;5143;42.584;23.164;2023-05-23T08:47:39;5.30;;;3.73;;
10201;SDS011;5143;42.584;23.164;2023-05-23T08:50:10;7.23;;;3.80;;
10201;SDS011;5143;42.584;23.164;2023-05-23T08:52:40;11.27;;;3.83;;
10201;SDS011;5143;42.584;23.164;2023-05-23T08:55:11;8.03;;;4.47;;
10201;SDS011;5143;42.584;23.164;2023-05-23T08:57:38;7.60;;;3.80;;
10201;SDS011;5143;42.584;23.164;2023-05-23T09:00:08;8.87;;;4.47;;
10201;SDS011;5143;42.584;23.164;2023-05-23T09:02:38;7.77;;;4.40;;
10201;SDS011;5143;42.584;23.164;2023-05-23T09:05:06;8.93;;;4.57;;
10201;SDS011;5143;42.584;23.164;2023-05-23T09:07:33;10.50;;;5.10;;
10201;SDS011;5143;42.584;23.164;2023-05-23T09:10:01;8.80;;;4.67;;
10201;SDS011;5143;42.584;23.164;2023-05-23T09:12:30;10.07;;;4.13;;
10201;SDS011;5143;42.584;23.164;2023-05-23T09:14:57;7.63;;;4.50;;
10201;SDS011;5143;42.584;23.164;2023-05-23T09:17:24;7.93;;;4.20;;
10201;SDS011;5143;42.584;23.164;2023-05-23T09:19:51;8.17;;;4.03;;
10201;SDS011;5143;42.584;23.164;2023-05-23T09:22:21;8.70;;;5.00;;
10201;SDS011;5143;42.584;23.164;2023-05-23T09:24:50;6.13;;;4.43;;
10201;SDS011;5143;42.584;23.164;2023-05-23T09:27:17;7.80;;;4.00;;
10201;SDS011;5143;42.584;23.164;2023-05-23T09:29:46;6.93;;;3.43;;
10201;SDS011;5143;42.584;23.164;2023-05-23T09:32:15;6.80;;;3.63;;
10201;SDS011;5143;42.584;23.164;2023-05-23T09:34:49;5.23;;;3.57;;
10201;SDS011;5143;42.584;23.164;2023-05-23T09:37:24;4.37;;;2.20;;
10201;SDS011;5143;42.584;23.164;2023-05-23T09:39:55;6.27;;;2.63;;
10201;SDS011;5143;42.584;23.164;2023-05-23T09:42:22;7.13;;;2.30;;
10201;SDS011;5143;42.584;23.164;2023-05-23T09:44:50;5.43;;;2.30;;
10201;SDS011;5143;42.584;23.164;2023-05-23T09:47:18;4.53;;;2.60;;
10201;SDS011;5143;42.584;23.164;2023-05-23T09:49:45;3.70;;;1.97;;
10201;SDS011;5143;42.584;23.164;2023-05-23T09:52:12;3.30;;;2.10;;
10201;SDS011;5143;42.584;23.164;2023-05-23T09:54:39;3.87;;;2.20;;
10201;SDS011;5143;42.584;23.164;2023-05-23T09:57:07;3.23;;;2.00;;
10201;SDS011;5143;42.584;23.164;2023-05-23T09:59:37;4.87;;;2.23;;
10201;SDS011;5143;42.584;23.164;2023-05-23T10:02:07;4.40;;;1.80;;
10201;SDS011;5143;42.584;23.164;2023-05-23T10:04:37;6.07;;;2.17;;
10201;SDS011;5143;42.584;23.164;2023-05-23T10:07:06;4.57;;;2.57;;
10201;SDS011;5143;42.584;23.164;2023-05-23T10:09:40;4.67;;;2.20;;
10201;SDS011;5143;42.584;23.164;2023-05-23T10:15:13;3.57;;;2.47;;
10201;SDS011;5143;42.584;23.164;2023-05-23T10:17:56;3.73;;;2.27;;
10201;SDS011;5143;42.584;23.164;2023-05-23T10:20:28;5.47;;;2.13;;
10201;SDS011;5143;42.584;23.164;2023-05-23T10:22:57;3.80;;;2.07;;
10201;SDS011;5143;42.584;23.164;2023-05-23T10:25:25;8.20;;;2.63;;
10201;SDS011;5143;42.584;23.164;2023-05-23T10:27:53;4.10;;;2.37;;
10201;SDS011;5143;42.584;23.164;2023-05-23T10:30:23;9.30;;;2.50;;
10201;SDS011;5143;42.584;23.164;2023-05-23T10:32:51;6.77;;;2.20;;
10201;SDS011;5143;42.584;23.164;2023-05-23T10:35:21;2.97;;;2.00;;
10201;SDS011;5143;42.584;23.164;2023-05-23T10:37:56;3.70;;;2.03;;
10201;SDS011;5143;42.584;23.164;2023-05-23T10:40:30;4.27;;;1.87;;
10201;SDS011;5143;42.584;23.164;2023-05-23T10:43:09;3.87;;;2.23;;
10201;SDS011;5143;42.584;23.164;2023-05-23T10:45:43;3.00;;;2.00;;
10201;SDS011;5143;42.584;23.164;2023-05-23T10:48:20;5.73;;;2.27;;
10201;SDS011;5143;42.584;23.164;2023-05-23T10:51:01;5.23;;;2.37;;
10201;SDS011;5143;42.584;23.164;2023-05-23T10:53:30;4.53;;;2.30;;
10201;SDS011;5143;42.584;23.164;2023-05-23T10:55:57;3.70;;;2.50;;
10201;SDS011;5143;42.584;23.164;2023-05-23T10:58:24;5.27;;;2.03;;
10201;SDS011;5143;42.584;23.164;2023-05-23T11:00:55;5.37;;;2.10;;
10201;SDS011;5143;42.584;23.164;2023-05-23T11:03:30;5.80;;;2.30;;
10201;SDS011;5143;42.584;23.164;2023-05-23T11:05:59;15.77;;;4.90;;
10201;SDS011;5143;42.584;23.164;2023-05-23T11:08:27;32.33;;;6.50;;
10201;SDS011;5143;42.584;23.164;2023-05-23T11:10:57;19.90;;;4.37;;
10201;SDS011;5143;42.584;23.164;2023-05-23T11:13:25;4.67;;;2.50;;
10201;SDS011;5143;42.584;23.164;2023-05-23T11:16:24;3.77;;;1.53;;
10201;SDS011;5143;42.584;23.164;2023-05-23T11:21:52;7.57;;;2.00;;
10201;SDS011;5143;42.584;23.164;2023-05-23T11:24:20;3.90;;;2.20;;
10201;SDS011;5143;42.584;23.164;2023-05-23T11:26:53;4.90;;;2.10;;
10201;SDS011;5143;42.584;23.164;2023-05-23T11:29:24;5.73;;;2.10;;
10201;SDS011;5143;42.584;23.164;2023-05-23T11:31:52;4.10;;;2.03;;
10201;SDS011;5143;42.584;23.164;2023-05-23T11:34:19;3.33;;;2.00;;
10201;SDS011;5143;42.584;23.164;2023-05-23T11:36:51;5.03;;;2.20;;
10201;SDS011;5143;42.584;23.164;2023-05-23T11:39:19;3.37;;;2.37;;
10201;SDS011;5143;42.584;23.164;2023-05-23T11:41:49;3.70;;;2.10;;
10201;SDS011;5143;42.584;23.164;2023-05-23T11:44:23;4.13;;;1.77;;
10201;SDS011;5143;42.584;23.164;2023-05-23T11:46:57;3.07;;;2.00;;
10201;SDS011;5143;42.584;23.164;2023-05-23T11:49:28;6.27;;;2.30;;
10201;SDS011;5143;42.584;23.164;2023-05-23T11:51:56;5.90;;;2.10;;
10201;SDS011;5143;42.584;23.164;2023-05-23T11:54:23;2.10;;;1.80;;
10201;SDS011;5143;42.584;23.164;2023-05-23T11:56:51;3.50;;;2.10;;
10201;SDS011;5143;42.584;23.164;2023-05-23T11:59:18;3.50;;;2.00;;
10201;SDS011;5143;42.584;23.164;2023-05-23T12:01:44;3.73;;;2.07;;
10201;SDS011;5143;42.584;23.164;2023-05-23T12:04:11;4.17;;;2.00;;
10201;SDS011;5143;42.584;23.164;2023-05-23T12:06:39;6.17;;;2.30;;
10201;SDS011;5143;42.584;23.164;2023-05-23T12:09:07;3.13;;;2.10;;
10201;SDS011;5143;42.584;23.164;2023-05-23T12:11:37;3.80;;;2.20;;
10201;SDS011;5143;42.584;23.164;2023-05-23T12:14:04;2.63;;;2.00;;
10201;SDS011;5143;42.584;23.164;2023-05-23T12:16:31;5.27;;;2.53;;
10201;SDS011;5143;42.584;23.164;2023-05-23T12:18:59;5.20;;;2.23;;
10201;SDS011;5143;42.584;23.164;2023-05-23T12:21:32;4.00;;;2.30;;
10201;SDS011;5143;42.584;23.164;2023-05-23T12:24:14;6.93;;;2.50;;
10201;SDS011;5143;42.584;23.164;2023-05-23T12:26:49;4.33;;;2.20;;
10201;SDS011;5143;42.584;23.164;2023-05-23T12:29:19;5.70;;;2.30;;
10201;SDS011;5143;42.584;23.164;2023-05-23T12:31:47;4.17;;;1.90;;
10201;SDS011;5143;42.584;23.164;2023-05-23T12:34:16;3.20;;;2.07;;
10201;SDS011;5143;42.584;23.164;2023-05-23T12:36:45;4.63;;;2.17;;
10201;SDS011;5143;42.584;23.164;2023-05-23T12:39:13;3.77;;;2.07;;
10201;SDS011;5143;42.584;23.164;2023-05-23T12:41:41;6.93;;;2.10;;
10201;SDS011;5143;42.584;23.164;2023-05-23T12:44:09;7.10;;;2.10;;
10201;SDS011;5143;42.584;23.164;2023-05-23T12:46:38;4.57;;;2.30;;
10201;SDS011;5143;42.584;23.164;2023-05-23T12:49:05;4.23;;;2.63;;
10201;SDS011;5143;42.584;23.164;2023-05-23T12:51:31;3.17;;;2.27;;
10201;SDS011;5143;42.584;23.164;2023-05-23T12:54:00;5.70;;;2.37;;
10201;SDS011;5143;42.584;23.164;2023-05-23T12:56:26;3.33;;;2.00;;
10201;SDS011;5143;42.584;23.164;2023-05-23T12:58:53;6.97;;;2.60;;
10201;SDS011;5143;42.584;23.164;2023-05-23T13:01:20;7.07;;;2.37;;
10201;SDS011;5143;42.584;23.164;2023-05-23T13:03:48;5.90;;;2.50;;
10201;SDS011;5143;42.584;23.164;2023-05-23T13:06:15;9.63;;;2.50;;
10201;SDS011;5143;42.584;23.164;2023-05-23T13:08:42;4.33;;;2.20;;
10201;SDS011;5143;42.584;23.164;2023-05-23T13:11:10;5.63;;;2.43;;
10201;SDS011;5143;42.584;23.164;2023-05-23T13:13:37;2.97;;;2.10;;
10201;SDS011;5143;42.584;23.164;2023-05-23T13:16:04;5.37;;;2.67;;
10201;SDS011;5143;42.584;23.164;2023-05-23T13:18:31;3.23;;;2.20;;
10201;SDS011;5143;42.584;23.164;2023-05-23T13:20:57;3.57;;;2.20;;
10201;SDS011;5143;42.584;23.164;2023-05-23T13:23:24;2.33;;;1.90;;
10201;SDS011;5143;42.584;23.164;2023-05-23T13:25:51;5.90;;;2.17;;
10201;SDS011;5143;42.584;23.164;2023-05-23T13:28:19;3.07;;;2.30;;
10201;SDS011;5143;42.584;23.164;2023-05-23T13:30:46;2.30;;;2.03;;
10201;SDS011;5143;42.584;23.164;2023-05-23T13:33:13;6.70;;;2.20;;
10201;SDS011;5143;42.584;23.164;2023-05-23T13:35:40;5.20;;;2.07;;
10201;SDS011;5143;42.584;23.164;2023-05-23T13:38:06;3.70;;;2.40;;
10201;SDS011;5143;42.584;23.164;2023-05-23T13:40:33;5.17;;;2.20;;
10201;SDS011;5143;42.584;23.164;2023-05-23T13:43:00;3.17;;;2.27;;
10201;SDS011;5143;42.584;23.164;2023-05-23T13:45:28;3.23;;;2.20;;
10201;SDS011;5143;42.584;23.164;2023-05-23T13:47:56;21.37;;;3.10;;
10201;SDS011;5143;42.584;23.164;2023-05-23T13:50:22;3.10;;;2.30;;
10201;SDS011;5143;42.584;23.164;2023-05-23T13:52:49;3.13;;;1.90;;
10201;SDS011;5143;42.584;23.164;2023-05-23T13:55:16;3.57;;;2.17;;
10201;SDS011;5143;42.584;23.164;2023-05-23T13:57:43;4.40;;;2.63;;
10201;SDS011;5143;42.584;23.164;2023-05-23T14:00:11;4.37;;;2.23;;
10201;SDS011;5143;42.584;23.164;2023-05-23T14:02:40;5.37;;;2.17;;
10201;SDS011;5143;42.584;23.164;2023-05-23T14:05:07;8.50;;;2.10;;
10201;SDS011;5143;42.584;23.164;2023-05-23T14:07:35;3.50;;;2.50;;
10201;SDS011;5143;42.584;23.164;2023-05-23T14:10:02;5.30;;;2.47;;
10201;SDS011;5143;42.584;23.164;2023-05-23T14:12:31;6.53;;;2.53;;
10201;SDS011;5143;42.584;23.164;2023-05-23T14:14:57;6.57;;;2.20;;
10201;SDS011;5143;42.584;23.164;2023-05-23T14:17:24;3.73;;;1.90;;
10201;SDS011;5143;42.584;23.164;2023-05-23T14:19:52;6.57;;;2.67;;
10201;SDS011;5143;42.584;23.164;2023-05-23T14:22:19;4.83;;;2.20;;
10201;SDS011;5143;42.584;23.164;2023-05-23T14:24:46;4.13;;;2.50;;
10201;SDS011;5143;42.584;23.164;2023-05-23T14:27:12;5.93;;;2.00;;
10201;SDS011;5143;42.584;23.164;2023-05-23T14:29:39;3.27;;;2.20;;
10201;SDS011;5143;42.584;23.164;2023-05-23T14:32:10;3.80;;;2.40;;
10201;SDS011;5143;42.584;23.164;2023-05-23T14:34:37;9.53;;;2.60;;
10201;SDS011;5143;42.584;23.164;2023-05-23T14:37:05;5.30;;;2.30;;
10201;SDS011;5143;42.584;23.164;2023-05-23T14:39:32;10.83;;;2.53;;
10201;SDS011;5143;42.584;23.164;2023-05-23T14:41:59;7.40;;;2.60;;
10201;SDS011;5143;42.584;23.164;2023-05-23T14:44:26;5.70;;;2.77;;
10201;SDS011;5143;42.584;23.164;2023-05-23T14:46:53;9.17;;;2.80;;
10201;SDS011;5143;42.584;23.164;2023-05-23T14:49:20;2.63;;;2.10;;
10201;SDS011;5143;42.584;23.164;2023-05-23T14:51:47;3.20;;;2.07;;
10201;SDS011;5143;42.584;23.164;2023-05-23T14:54:15;5.43;;;2.50;;
10201;SDS011;5143;42.584;23.164;2023-05-23T14:56:42;4.10;;;2.20;;